createdAt,value
2018-05-02T00:01:22.644Z,12.41
2018-05-02T00:03:50.127Z,12.37
2018-05-02T00:06:17.605Z,12.32
2018-05-02T00:08:45.000Z,12.30
2018-05-02T00:11:12.398Z,12.21
2018-05-02T00:13:39.932Z,12.16
2018-05-02T00:16:07.881Z,12.11
2018-05-02T00:18:35.270Z,12.01
2018-05-02T00:21:02.692Z,11.95
2018-05-02T00:23:30.247Z,11.93
2018-05-02T00:25:57.639Z,11.97
2018-05-02T00:28:25.137Z,12.02
2018-05-02T00:30:52.564Z,11.95
2018-05-02T00:33:19.951Z,11.88
2018-05-02T00:35:47.392Z,11.82
2018-05-02T00:38:14.827Z,11.69
2018-05-02T00:40:42.260Z,11.65
2018-05-02T00:43:09.956Z,11.63
2018-05-02T00:45:37.385Z,11.65
2018-05-02T00:48:04.781Z,11.61
2018-05-02T00:50:32.549Z,11.57
2018-05-02T00:53:00.548Z,11.54
2018-05-02T00:55:28.025Z,11.50
2018-05-02T00:57:55.432Z,11.45
2018-05-02T01:00:23.379Z,11.37
2018-05-02T01:02:50.849Z,11.33
2018-05-02T01:05:18.239Z,11.24
2018-05-02T01:07:45.672Z,11.23
2018-05-02T01:10:13.106Z,11.37
2018-05-02T01:12:40.530Z,11.44
2018-05-02T01:15:07.930Z,11.39
2018-05-02T01:17:35.369Z,11.42
2018-05-02T01:20:02.841Z,11.48
2018-05-02T01:22:30.436Z,11.50
2018-05-02T01:24:57.882Z,11.40
2018-05-02T01:27:25.504Z,11.37
2018-05-02T01:29:52.947Z,11.40
2018-05-02T01:32:20.435Z,11.44
2018-05-02T01:34:48.568Z,11.43
2018-05-02T01:37:15.975Z,11.43
2018-05-02T01:39:43.437Z,11.51
2018-05-02T01:42:10.859Z,11.50
2018-05-02T01:44:38.318Z,11.49
2018-05-02T01:47:05.791Z,11.49
2018-05-02T01:49:33.190Z,11.43
2018-05-02T01:52:00.627Z,11.43
2018-05-02T01:54:28.488Z,11.40
2018-05-02T01:56:55.890Z,11.44
2018-05-02T01:59:23.348Z,11.46
2018-05-02T02:01:50.781Z,11.46
2018-05-02T02:04:18.233Z,11.41
2018-05-02T02:06:45.622Z,11.39
2018-05-02T02:09:13.059Z,11.40
2018-05-02T02:11:40.632Z,11.43
2018-05-02T02:14:08.104Z,11.30
2018-05-02T02:16:35.531Z,11.21
2018-05-02T02:19:02.964Z,11.20
2018-05-02T02:21:30.387Z,11.27
2018-05-02T02:23:57.808Z,11.33
2018-05-02T02:26:25.232Z,11.38
2018-05-02T02:28:52.656Z,11.36
2018-05-02T02:31:20.099Z,11.31
2018-05-02T02:33:47.512Z,11.32
2018-05-02T02:36:15.112Z,11.31
2018-05-02T02:38:42.581Z,11.30
2018-05-02T02:41:10.008Z,11.35
2018-05-02T02:43:37.490Z,11.30
2018-05-02T02:46:04.918Z,11.31
2018-05-02T02:48:32.364Z,11.21
2018-05-02T02:50:59.792Z,11.21
2018-05-02T02:53:27.239Z,11.29
2018-05-02T02:55:54.673Z,11.39
2018-05-02T02:58:22.111Z,11.46
2018-05-02T03:00:49.536Z,11.53
2018-05-02T03:03:16.956Z,11.56
2018-05-02T03:05:44.416Z,11.46
2018-05-02T03:08:11.934Z,11.38
2018-05-02T03:13:06.074Z,11.41
2018-05-02T03:15:33.652Z,11.43
2018-05-02T03:18:01.925Z,11.51
2018-05-02T03:20:29.339Z,11.46
2018-05-02T03:22:56.759Z,11.50
2018-05-02T03:25:24.264Z,11.57
2018-05-02T03:27:51.736Z,11.64
2018-05-02T03:30:19.165Z,11.71
2018-05-02T03:32:46.669Z,11.79
2018-05-02T03:35:14.097Z,11.87
2018-05-02T03:37:41.596Z,11.88
2018-05-02T03:40:09.061Z,11.89
2018-05-02T03:42:36.462Z,11.91
2018-05-02T03:45:03.947Z,11.97
2018-05-02T03:47:31.856Z,12.00
2018-05-02T03:49:59.319Z,12.04
2018-05-02T03:52:26.760Z,12.10
2018-05-02T03:54:54.170Z,12.12
2018-05-02T03:57:21.607Z,12.15
2018-05-02T04:00:01.152Z,12.14
2018-05-02T04:02:40.300Z,12.16
2018-05-02T04:05:19.429Z,12.15
2018-05-02T04:07:46.847Z,12.16
2018-05-02T04:10:14.320Z,12.19
2018-05-02T04:12:41.737Z,12.18
2018-05-02T04:15:09.177Z,12.14
2018-05-02T04:17:37.091Z,12.10
2018-05-02T04:20:04.520Z,12.06
2018-05-02T04:22:31.909Z,12.03
2018-05-02T04:24:59.406Z,12.09
2018-05-02T04:27:26.828Z,12.14
2018-05-02T04:29:54.253Z,12.12
2018-05-02T04:32:21.720Z,12.11
2018-05-02T04:34:49.729Z,12.15
2018-05-02T04:37:17.167Z,12.16
2018-05-02T04:39:44.604Z,12.15
2018-05-02T04:42:12.082Z,12.15
2018-05-02T04:44:39.553Z,12.12
2018-05-02T04:47:06.939Z,12.02
2018-05-02T04:49:34.388Z,12.08
2018-05-02T04:52:01.827Z,12.19
2018-05-02T04:54:29.259Z,12.26
2018-05-02T04:56:56.660Z,12.33
2018-05-02T04:59:24.155Z,12.39
2018-05-02T05:01:51.604Z,12.44
2018-05-02T05:04:19.285Z,12.50
2018-05-02T05:06:46.743Z,12.55
2018-05-02T05:09:14.360Z,12.53
2018-05-02T05:11:41.800Z,12.52
2018-05-02T05:14:09.280Z,12.59
2018-05-02T05:16:36.678Z,12.67
2018-05-02T05:19:04.132Z,12.66
2018-05-02T05:21:31.657Z,12.70
2018-05-02T05:23:59.097Z,12.72
2018-05-02T05:26:26.564Z,12.72
2018-05-02T05:28:53.991Z,12.71
2018-05-02T05:31:21.462Z,12.74
2018-05-02T05:33:48.918Z,12.75
2018-05-02T05:36:16.343Z,12.76
2018-05-02T05:38:43.768Z,12.78
2018-05-02T05:41:11.208Z,12.66
2018-05-02T05:43:39.694Z,12.53
2018-05-02T05:46:07.101Z,12.53
2018-05-02T05:48:34.531Z,12.63
2018-05-02T05:51:01.988Z,12.71
2018-05-02T05:53:29.415Z,12.79
2018-05-02T05:55:56.903Z,12.83
2018-05-02T05:58:24.326Z,12.91
2018-05-02T06:00:51.831Z,12.82
2018-05-02T06:03:19.298Z,12.88
2018-05-02T06:05:46.725Z,12.89
2018-05-02T06:08:14.301Z,12.94
2018-05-02T06:10:41.762Z,12.88
2018-05-02T06:13:09.188Z,12.97
2018-05-02T06:15:36.669Z,13.01
2018-05-02T06:18:04.096Z,12.98
2018-05-02T06:20:31.528Z,13.11
2018-05-02T06:22:58.974Z,13.04
2018-05-02T06:25:26.435Z,13.04
2018-05-02T06:27:54.155Z,13.05
2018-05-02T06:30:21.542Z,13.17
2018-05-02T06:32:48.944Z,13.15
2018-05-02T06:35:16.691Z,13.29
2018-05-02T06:37:44.237Z,13.42
2018-05-02T06:40:11.669Z,13.38
2018-05-02T06:42:39.176Z,13.35
2018-05-02T06:45:06.603Z,13.34
2018-05-02T06:47:34.003Z,13.36
2018-05-02T06:50:01.433Z,13.35
2018-05-02T06:52:28.902Z,13.40
2018-05-02T06:54:56.360Z,13.61
2018-05-02T06:57:23.889Z,13.72
2018-05-02T06:59:51.324Z,13.66
2018-05-02T07:02:18.813Z,13.58
2018-05-02T07:04:46.638Z,13.56
2018-05-02T07:07:14.176Z,13.79
2018-05-02T07:09:42.128Z,13.91
2018-05-02T07:12:09.604Z,13.72
2018-05-02T07:14:37.099Z,13.66
2018-05-02T07:17:04.555Z,13.82
2018-05-02T07:19:31.951Z,14.03
2018-05-02T07:21:59.420Z,14.17
2018-05-02T07:24:26.856Z,14.36
2018-05-02T07:26:54.358Z,14.64
2018-05-02T07:29:21.843Z,14.82
2018-05-02T07:31:49.278Z,15.01
2018-05-02T07:34:16.745Z,15.29
2018-05-02T07:36:44.233Z,15.25
2018-05-02T07:39:11.702Z,15.19
2018-05-02T07:41:39.135Z,15.51
2018-05-02T07:44:06.560Z,15.65
2018-05-02T07:46:34.047Z,15.77
2018-05-02T07:49:01.521Z,15.77
2018-05-02T07:51:28.928Z,15.60
2018-05-02T07:53:56.362Z,15.75
2018-05-02T07:56:23.918Z,15.68
2018-05-02T07:58:51.326Z,15.88
2018-05-02T08:01:18.795Z,15.77
2018-05-02T08:03:46.291Z,15.73
2018-05-02T08:06:13.903Z,15.55
2018-05-02T08:08:41.323Z,15.38
2018-05-02T08:11:08.837Z,15.40
2018-05-02T08:13:36.292Z,15.78
2018-05-02T08:16:04.157Z,16.05
2018-05-02T08:18:31.591Z,16.13
2018-05-02T08:20:59.012Z,16.03
2018-05-02T08:23:26.507Z,15.88
2018-05-02T08:25:53.969Z,15.94
2018-05-02T08:28:21.440Z,15.84
2018-05-02T08:30:49.120Z,15.66
2018-05-02T08:33:16.596Z,15.36
2018-05-02T08:35:43.983Z,15.36
2018-05-02T08:38:11.383Z,15.43
2018-05-02T08:40:38.818Z,15.70
2018-05-02T08:43:06.284Z,15.80
2018-05-02T08:45:33.739Z,15.78
2018-05-02T08:48:02.097Z,16.04
2018-05-02T08:50:29.539Z,16.45
2018-05-02T08:52:56.959Z,16.67
2018-05-02T08:55:24.718Z,16.65
2018-05-02T08:57:52.783Z,16.39
2018-05-02T09:00:20.271Z,16.23
2018-05-02T09:02:47.815Z,16.08
2018-05-02T09:05:15.329Z,16.03
2018-05-02T09:07:42.806Z,16.21
2018-05-02T09:10:10.292Z,16.58
2018-05-02T09:12:37.733Z,17.03
2018-05-02T09:15:05.296Z,17.47
2018-05-02T09:17:32.687Z,17.81
2018-05-02T09:20:00.093Z,18.15
2018-05-02T09:22:27.527Z,18.17
2018-05-02T09:24:54.991Z,18.11
2018-05-02T09:27:22.455Z,18.12
2018-05-02T09:29:50.006Z,17.86
2018-05-02T09:32:17.471Z,17.88
2018-05-02T09:34:44.945Z,18.01
2018-05-02T09:37:12.402Z,18.05
2018-05-02T09:39:39.876Z,18.00
2018-05-02T09:42:07.349Z,18.21
2018-05-02T09:44:34.800Z,18.64
2018-05-02T09:47:02.215Z,18.76
2018-05-02T09:49:29.652Z,18.66
2018-05-02T09:51:57.121Z,19.01
2018-05-02T09:54:24.577Z,18.81
2018-05-02T09:56:52.031Z,18.36
2018-05-02T09:59:19.573Z,18.47
2018-05-02T10:01:47.195Z,18.62
2018-05-02T10:04:14.644Z,18.41
2018-05-02T10:06:42.158Z,19.24
2018-05-02T10:09:09.588Z,19.01
2018-05-02T10:11:37.008Z,19.21
2018-05-02T10:14:04.482Z,19.36
2018-05-02T10:16:31.945Z,19.53
2018-05-02T10:18:59.416Z,19.65
2018-05-02T10:21:27.202Z,20.04
2018-05-02T10:23:54.963Z,19.77
2018-05-02T10:26:22.469Z,19.36
2018-05-02T10:28:49.824Z,19.63
2018-05-02T10:31:17.394Z,19.50
2018-05-02T10:33:44.817Z,19.43
2018-05-02T10:36:12.271Z,19.20
2018-05-02T10:38:39.794Z,19.33
2018-05-02T10:41:07.218Z,19.21
2018-05-02T10:43:34.704Z,19.36
2018-05-02T10:46:02.172Z,19.70
2018-05-02T10:48:29.574Z,20.18
2018-05-02T10:50:57.010Z,20.29
2018-05-02T10:53:24.418Z,20.33
2018-05-02T10:55:51.880Z,19.71
2018-05-02T10:58:19.317Z,20.20
2018-05-02T11:00:46.733Z,20.52
2018-05-02T11:03:14.215Z,20.70
2018-05-02T11:05:41.760Z,20.79
2018-05-02T11:08:09.211Z,20.47
2018-05-02T11:10:36.689Z,20.67
2018-05-02T11:13:04.092Z,20.41
2018-05-02T11:15:31.514Z,20.22
2018-05-02T11:17:58.952Z,19.74
2018-05-02T11:20:26.380Z,20.01
2018-05-02T11:22:53.811Z,19.95
2018-05-02T11:25:21.263Z,20.07
2018-05-02T11:27:48.671Z,20.01
2018-05-02T11:30:16.128Z,20.31
2018-05-02T11:32:43.589Z,20.51
2018-05-02T11:35:11.030Z,20.61
2018-05-02T11:37:38.415Z,20.36
2018-05-02T11:40:05.872Z,20.29
2018-05-02T11:42:33.332Z,20.19
2018-05-02T11:45:00.773Z,20.35
2018-05-02T11:47:28.221Z,20.14
2018-05-02T11:49:55.615Z,19.84
2018-05-02T11:52:23.095Z,20.08
2018-05-02T11:54:50.611Z,19.77
2018-05-02T11:57:18.048Z,20.03
2018-05-02T11:59:45.559Z,19.92
2018-05-02T12:02:12.992Z,19.70
2018-05-02T12:04:40.464Z,20.06
2018-05-02T12:07:07.963Z,20.09
2018-05-02T12:09:35.395Z,19.95
2018-05-02T12:12:02.861Z,20.05
2018-05-02T12:14:30.361Z,20.46
2018-05-02T12:16:57.867Z,20.90
2018-05-02T12:19:25.279Z,21.03
2018-05-02T12:21:52.846Z,21.01
2018-05-02T12:24:20.219Z,21.23
2018-05-02T12:26:47.736Z,21.50
2018-05-02T12:29:15.216Z,21.65
2018-05-02T12:31:42.681Z,21.53
2018-05-02T12:34:10.107Z,21.59
2018-05-02T12:36:37.590Z,21.76
2018-05-02T12:39:05.941Z,21.74
2018-05-02T12:41:33.455Z,21.70
2018-05-02T12:44:00.914Z,21.42
2018-05-02T12:46:28.353Z,21.38
2018-05-02T12:48:55.797Z,21.16
2018-05-02T12:51:23.353Z,20.99
2018-05-02T12:53:50.742Z,20.53
2018-05-02T12:56:18.301Z,20.39
2018-05-02T12:58:45.651Z,20.23
2018-05-02T13:01:13.079Z,20.24
2018-05-02T13:03:40.516Z,20.45
2018-05-02T13:06:07.943Z,20.61
2018-05-02T13:08:35.361Z,20.86
2018-05-02T13:11:02.995Z,21.08
2018-05-02T13:13:30.834Z,21.27
2018-05-02T13:15:58.283Z,21.06
2018-05-02T13:18:25.757Z,20.72
2018-05-02T13:20:53.183Z,20.41
2018-05-02T13:23:20.659Z,20.18
2018-05-02T13:25:48.059Z,20.06
2018-05-02T13:28:15.486Z,20.33
2018-05-02T13:30:42.875Z,20.27
2018-05-02T13:33:10.372Z,20.14
2018-05-02T13:35:37.807Z,19.92
2018-05-02T13:38:05.243Z,20.18
2018-05-02T13:40:32.695Z,20.41
2018-05-02T13:43:00.200Z,20.08
2018-05-02T13:45:27.643Z,20.30
2018-05-02T13:47:55.507Z,20.40
2018-05-02T13:50:23.033Z,20.38
2018-05-02T13:52:50.472Z,20.00
2018-05-02T13:55:18.205Z,19.82
2018-05-02T13:57:45.664Z,19.68
2018-05-02T14:00:13.093Z,19.64
2018-05-02T14:02:41.361Z,19.61
2018-05-02T14:05:08.755Z,19.65
2018-05-02T14:07:36.342Z,19.67
2018-05-02T14:10:03.739Z,19.66
2018-05-02T14:12:31.968Z,19.53
2018-05-02T14:14:59.492Z,19.60
2018-05-02T14:17:26.895Z,19.56
2018-05-02T14:19:54.302Z,19.40
2018-05-02T14:22:22.060Z,19.36
2018-05-02T14:24:49.711Z,19.41
2018-05-02T14:27:17.015Z,19.28
2018-05-02T14:29:44.492Z,19.37
2018-05-02T14:32:11.927Z,19.46
2018-05-02T14:34:39.355Z,19.56
2018-05-02T14:37:06.819Z,19.44
2018-05-02T14:39:34.285Z,19.22
2018-05-02T14:42:01.704Z,19.28
2018-05-02T14:44:29.170Z,19.17
2018-05-02T14:46:56.639Z,19.05
2018-05-02T14:49:24.199Z,18.96
2018-05-02T14:51:51.587Z,18.93
2018-05-02T14:54:19.036Z,18.82
2018-05-02T14:56:46.448Z,18.78
2018-05-02T14:59:13.883Z,18.78
2018-05-02T15:01:41.342Z,18.79
2018-05-02T15:04:08.776Z,18.91
2018-05-02T15:06:36.291Z,18.96
2018-05-02T15:09:03.717Z,18.92
2018-05-02T15:11:31.142Z,18.76
2018-05-02T15:13:58.540Z,18.54
2018-05-02T15:16:26.130Z,18.46
2018-05-02T15:18:53.607Z,18.47
2018-05-02T15:21:21.041Z,18.52
2018-05-02T15:23:48.518Z,18.62
2018-05-02T15:26:15.951Z,18.43
2018-05-02T15:28:43.367Z,18.23
2018-05-02T15:31:10.769Z,18.20
2018-05-02T15:33:38.835Z,18.15
2018-05-02T15:36:06.287Z,18.12
2018-05-02T15:38:33.811Z,18.03
2018-05-02T15:41:01.731Z,17.92
2018-05-02T15:43:29.129Z,17.77
2018-05-02T15:45:56.605Z,17.60
2018-05-02T15:48:24.042Z,17.55
2018-05-02T15:50:51.485Z,17.55
2018-05-02T15:53:18.891Z,17.61
2018-05-02T15:55:46.952Z,17.74
2018-05-02T15:58:14.563Z,17.77
2018-05-02T16:00:41.950Z,17.85
2018-05-02T16:03:09.367Z,17.89
2018-05-02T16:05:36.858Z,17.89
2018-05-02T16:08:04.349Z,17.83
2018-05-02T16:10:31.810Z,17.91
2018-05-02T16:12:59.534Z,17.87
2018-05-02T16:15:26.961Z,17.74
2018-05-02T16:17:54.417Z,17.59
2018-05-02T16:20:21.818Z,17.41
2018-05-02T16:22:49.332Z,17.42
2018-05-02T16:25:16.767Z,17.46
2018-05-02T16:27:44.324Z,17.54
2018-05-02T16:30:11.741Z,17.57
2018-05-02T16:32:39.279Z,17.43
2018-05-02T16:35:06.703Z,17.53
2018-05-02T16:37:34.143Z,17.64
2018-05-02T16:40:01.696Z,17.70
2018-05-02T16:42:29.111Z,17.71
2018-05-02T16:44:56.544Z,17.66
2018-05-02T16:47:23.944Z,17.60
2018-05-02T16:49:51.457Z,17.65
2018-05-02T16:52:18.887Z,17.66
2018-05-02T16:54:46.621Z,17.51
2018-05-02T16:57:14.084Z,17.41
2018-05-02T16:59:41.559Z,17.35
2018-05-02T17:02:08.963Z,17.33
2018-05-02T17:04:36.459Z,17.27
2018-05-02T17:07:03.881Z,17.09
2018-05-02T17:09:31.341Z,16.97
2018-05-02T17:11:58.751Z,17.10
2018-05-02T17:14:26.154Z,17.06
2018-05-02T17:16:53.606Z,17.03
2018-05-02T17:19:21.135Z,17.10
2018-05-02T17:21:48.548Z,17.07
2018-05-02T17:24:15.972Z,17.06
2018-05-02T17:26:43.432Z,17.13
2018-05-02T17:29:10.885Z,17.09
2018-05-02T17:31:38.335Z,17.06
2018-05-02T17:34:05.898Z,16.94
2018-05-02T17:36:33.365Z,16.96
2018-05-02T17:39:00.803Z,16.97
2018-05-02T17:41:28.342Z,16.98
2018-05-02T17:43:55.813Z,16.99
2018-05-02T17:46:23.350Z,16.89
2018-05-02T17:48:50.712Z,16.88
2018-05-02T17:51:18.185Z,16.86
2018-05-02T17:53:45.652Z,16.74
2018-05-02T17:56:13.075Z,16.66
2018-05-02T17:58:40.507Z,16.58
2018-05-02T18:01:07.976Z,16.51
2018-05-02T18:03:35.409Z,16.47
2018-05-02T18:06:02.845Z,16.44
2018-05-02T18:08:30.312Z,16.48
2018-05-02T18:10:57.753Z,16.57
2018-05-02T18:13:25.212Z,16.55
2018-05-02T18:15:52.668Z,16.55
2018-05-02T18:18:20.127Z,16.51
2018-05-02T18:20:47.593Z,16.48
2018-05-02T18:23:15.027Z,16.43
2018-05-02T18:25:42.507Z,16.20
2018-05-02T18:28:10.023Z,16.05
2018-05-02T18:30:37.374Z,15.93
2018-05-02T18:33:04.829Z,15.89
2018-05-02T18:35:32.307Z,15.86
2018-05-02T18:37:59.762Z,15.83
2018-05-02T18:40:27.207Z,15.81
2018-05-02T18:42:54.630Z,15.81
2018-05-02T18:45:22.077Z,15.79
2018-05-02T18:47:49.550Z,15.77
2018-05-02T18:50:16.986Z,15.76
2018-05-02T18:52:44.439Z,15.74
2018-05-02T18:55:11.823Z,15.76
2018-05-02T18:57:39.255Z,15.75
2018-05-02T19:00:06.692Z,15.84
2018-05-02T19:02:34.172Z,15.93
2018-05-02T19:05:01.935Z,15.96
2018-05-02T19:07:29.382Z,15.94
2018-05-02T19:09:56.820Z,15.94
2018-05-02T19:12:24.289Z,15.86
2018-05-02T19:14:51.684Z,15.78
2018-05-02T19:17:19.132Z,15.68
2018-05-02T19:19:52.065Z,15.68
2018-05-02T19:22:19.523Z,15.68
2018-05-02T19:27:41.085Z,15.76
2018-05-02T19:30:08.556Z,15.71
2018-05-02T19:32:41.546Z,15.63
2018-05-02T19:35:08.952Z,15.54
2018-05-02T19:37:36.457Z,15.54
2018-05-02T19:40:10.071Z,15.56
2018-05-02T19:42:43.320Z,15.49
2018-05-02T19:45:10.743Z,15.46
2018-05-02T19:47:38.221Z,15.42
2018-05-02T19:50:05.655Z,15.40
2018-05-02T19:52:38.845Z,15.40
2018-05-02T19:55:06.529Z,15.38
2018-05-02T19:57:33.994Z,15.38
2018-05-02T20:00:01.488Z,15.30
2018-05-02T20:02:34.534Z,15.32
2018-05-02T20:05:01.980Z,15.29
2018-05-02T20:07:34.977Z,15.29
2018-05-02T20:10:07.964Z,15.26
2018-05-02T20:12:41.104Z,15.30
2018-05-02T20:15:08.554Z,15.34
2018-05-02T20:17:36.025Z,15.42
2018-05-02T20:20:03.460Z,15.46
2018-05-02T20:22:30.883Z,15.52
2018-05-02T20:24:58.327Z,15.63
2018-05-02T20:27:25.744Z,15.48
2018-05-02T20:29:53.278Z,15.41
2018-05-02T20:32:20.671Z,15.40
2018-05-02T20:34:48.149Z,15.37
2018-05-02T20:37:15.624Z,15.31
2018-05-02T20:39:43.052Z,15.30
2018-05-02T20:42:10.485Z,15.29
2018-05-02T20:44:37.961Z,15.31
2018-05-02T20:47:05.437Z,15.29
2018-05-02T20:49:32.843Z,15.27
2018-05-02T20:52:00.293Z,15.25
2018-05-02T20:54:27.837Z,15.25
2018-05-02T20:56:55.232Z,15.19
2018-05-02T20:59:22.654Z,15.21
2018-05-02T21:01:50.077Z,15.16
2018-05-02T21:04:17.507Z,15.20
2018-05-02T21:06:44.955Z,15.27
2018-05-02T21:09:12.406Z,15.35
2018-05-02T21:11:39.832Z,15.45
2018-05-02T21:14:07.302Z,15.51
2018-05-02T21:16:34.781Z,15.42
2018-05-02T21:19:02.443Z,15.41
2018-05-02T21:21:29.836Z,15.44
2018-05-02T21:23:57.307Z,15.46
2018-05-02T21:26:24.728Z,15.47
2018-05-02T21:28:52.152Z,15.37
2018-05-02T21:31:19.580Z,15.34
2018-05-02T21:33:46.978Z,15.36
2018-05-02T21:36:14.427Z,15.34
2018-05-02T21:38:41.847Z,15.34
2018-05-02T21:41:09.280Z,15.29
2018-05-02T21:43:36.744Z,15.25
2018-05-02T21:46:04.212Z,15.16
2018-05-02T21:48:31.746Z,15.05
2018-05-02T21:50:59.303Z,14.97
2018-05-02T21:53:26.827Z,14.97
2018-05-02T21:55:54.214Z,14.99
2018-05-02T21:58:21.646Z,14.96
2018-05-02T22:00:49.485Z,14.97
2018-05-02T22:03:17.036Z,14.99
2018-05-02T22:05:44.434Z,15.04
2018-05-02T22:08:11.998Z,15.08
2018-05-02T22:10:39.493Z,15.03
2018-05-02T22:13:06.932Z,14.93
2018-05-02T22:15:34.314Z,14.92
2018-05-02T22:18:01.859Z,14.92
2018-05-02T22:20:29.693Z,14.94
2018-05-02T22:22:57.166Z,14.85
2018-05-02T22:25:24.647Z,14.77
2018-05-02T22:27:52.086Z,14.74
2018-05-02T22:30:19.565Z,14.68
2018-05-02T22:32:47.633Z,14.71
2018-05-02T22:35:15.084Z,14.78
2018-05-02T22:37:42.524Z,14.76
2018-05-02T22:40:10.001Z,14.76
2018-05-02T22:42:37.461Z,14.70
2018-05-02T22:45:04.888Z,14.65
2018-05-02T22:47:32.346Z,14.61
2018-05-02T22:50:00.211Z,14.56
2018-05-02T22:52:27.640Z,14.57
2018-05-02T22:54:55.069Z,14.54
2018-05-02T22:57:22.604Z,14.48
2018-05-02T22:59:50.075Z,14.44
2018-05-02T23:02:17.492Z,14.39
2018-05-02T23:04:44.906Z,14.40
2018-05-02T23:07:12.417Z,14.38
2018-05-02T23:09:39.900Z,14.38
2018-05-02T23:12:07.335Z,14.38
2018-05-02T23:14:34.816Z,14.38
2018-05-02T23:17:02.211Z,14.40
2018-05-02T23:19:29.643Z,14.42
2018-05-02T23:21:57.550Z,14.40
2018-05-02T23:24:25.144Z,14.38
2018-05-02T23:26:52.629Z,14.31
2018-05-02T23:29:20.023Z,14.24
2018-05-02T23:31:47.450Z,14.16
2018-05-02T23:34:14.878Z,14.09
2018-05-02T23:36:42.291Z,14.10
2018-05-02T23:39:09.727Z,14.17
2018-05-02T23:41:37.202Z,14.14
2018-05-02T23:44:04.677Z,14.10
2018-05-02T23:46:32.068Z,14.07
2018-05-02T23:48:59.491Z,14.03
2018-05-02T23:51:26.958Z,14.02
2018-05-02T23:53:54.414Z,14.00
2018-05-02T23:56:21.881Z,13.88
2018-05-02T23:58:49.347Z,13.88
